Las Vegas, Nevada (DRI) Weather observations

Data are for observation ending at time listed.
 Day   Time    Ave.   Ave.  Ave.  Vector   Max.   Stn.    Total    Solar   Ave.  
  of    of     Air    Rel.  Wind   Wind    Wind   Baro.  Precip.   Rad.    Soil  
Year   Day     Temp.  Hum.  Speed  Dir.    Gust   Pres.                    Temp. 
2026   (PST)    F      %     mph   deg.    mph     mb.     in.     W/m2     F   
------------------------------------------------------------------------------
 247   11:30   91.8    15    7.4   179     16.1   939.6    0.00     854    93.5
 247   11:40   92.2    15    6.9   188     12.6   939.3    0.00     858    94.2
 247   11:50   92.3    14    7.7   194     17.0   939.2    0.00     860    94.8
 247   12:00   93.1    14    6.6   189     14.7   939.1    0.00     860    95.5
 247   12:10   93.1    14    6.2   188     13.7   938.9    0.00     858    96.1
 247   12:20   93.6    14    6.9   183     11.6   938.7    0.00     856    96.7
 247   12:30   94.2    14    6.8   177     14.9   938.6    0.00     852    97.4
 247   12:40   94.8    14    6.9   177     17.4   938.5    0.00     845    98.0
 247   12:50   94.8    14    7.1   195     17.3   938.5    0.00     834    98.6
 247   13:00   95.4    13    5.1   192      9.9   938.4    0.00     824    99.2
 247   13:10   95.8    13    6.5   178     12.3   938.3    0.00     813    99.7
 247   13:20   95.9    13    6.4   185     13.2   938.2    0.00     799    100.3
 247   13:30   96.5    13    7.2   181     14.7   938.0    0.00     785    100.8
 247   13:40   96.6    12    7.0   174     18.6   937.9    0.00     768    101.2
 247   13:50   96.5    12    5.7   179     12.5   937.8    0.00     750    101.7
 247   14:00   96.9    12    5.7   190     12.6   937.7    0.00     731    102.1
 247   14:10   97.2    12    7.4   174     13.4   937.6    0.00     710    102.5
 247   14:20   97.1    12    5.4   185     14.6   937.5    0.00     687    102.8
 247   14:30   97.3    12    7.4   190     18.3   937.4    0.00     663    103.0
 247   14:40   97.1    12    7.2   189     15.4   937.3    0.00     640    103.1
 247   14:50   97.3    12    7.9   177     18.8   937.2    0.00     613    103.2
 247   15:00   97.5    12    6.2   184     12.3   937.1    0.00     584    103.2
 247   15:10   97.2    12    6.8   182     11.6   937.1    0.00     555    103.1
 247   15:20   96.8    12    7.0   177     14.3   937.1    0.00     527    102.9
 247   15:30   97.7    12    3.3   224      8.6   937.1    0.00     496    102.8
 247   15:40   97.6    12    4.8   202      9.9   937.0    0.00     464    102.5
 247   15:50   97.1    12    5.8   188     11.8   937.1    0.00     433    102.3
 247   16:00   97.3    12    4.8   211     10.7   937.1    0.00     399    102.0
 247   16:10   97.0    12    4.8   205     13.4   937.1    0.00     366    101.7
 247   16:20   96.7    12    5.0   205     10.2   937.1    0.00     332    101.5
 247   16:30   96.4    12    3.8   192      8.1   937.1    0.00     298    101.3
 247   16:40   97.1    12    4.2   208     13.5   937.1    0.00     264    101.0
 247   16:50   96.2    12    3.7   193      8.8   937.1    0.00     231    100.8
 247   17:00   95.5    12    5.1   206     10.8   937.1    0.00     197    100.6
 247   17:10   95.1    13    5.1   194     10.8   937.1    0.00     165    100.3
 247   17:20   95.1    13    3.7   196      8.8   937.2    0.00     135    100.1
 247   17:30   93.9    13    6.2   182     11.4   937.3    0.00      98    99.8
 247   17:40   92.7    13    5.1   197      9.5   937.4    0.00      23    99.5
 247   17:50   92.3    13    5.4   190     12.4   937.5    0.00      12    99.2
 247   18:00   92.1    14    4.0   201      8.2   937.5    0.00       7    98.9
 247   18:10   91.7    14    4.4   197     12.4   937.4    0.00       4    98.6
 247   18:20   91.5    14    4.9   202      9.3   937.5    0.00       1    98.3
 247   18:30   91.2    14    4.2   203     11.2   937.6    0.00       0    98.0
 247   18:40   90.8    14    4.1   188      9.1   937.6    0.00       0    97.7
 247   18:50   90.5    14    2.9   186      7.5   937.7    0.00       0    97.4
 247   19:00   90.2    15    3.1   182      6.6   937.8    0.00       0    97.2
 247   19:10   90.1    14    4.0   186      8.6   937.9    0.00       0    99999.0
 247   19:20   90.1    15    3.2   193      7.4   938.1    0.00       0    99999.0
 247   19:30   89.7    15    3.1   183      5.6   938.2    0.00       0    99999.0
 247   19:40   89.5    15    2.4   176      5.6   938.3    0.00       0    99999.0
 247   19:50   89.1    15    1.7   170      4.5   938.4    0.00       0    99999.0
 247   20:00   88.8    15    2.1   174      5.3   938.6    0.00       0    99999.0
 247   20:10   88.6    15    1.2   166      4.9   938.6    0.00       0    99999.0
 247   20:20   87.9    16    1.9   171      9.3   938.7    0.00       0    99999.0
 247   20:30   87.3    17    1.0   177      3.3   938.8    0.00       0    99999.0
 247   20:40   86.6    18    1.3   189      7.4   938.8    0.00       0    99999.0
 247   20:50   87.4    16    1.7   181      5.6   938.9    0.00       0    99999.0
 247   21:00   87.9    16    1.6   181      4.7   938.9    0.00       0    99999.0
 247   21:10   86.8    17    1.5   172      2.4   939.0    0.00       0    99999.0
 247   21:20   86.4    17    1.9   171      4.8   939.0    0.00       0    99999.0
 247   21:30   86.7    16    3.4   172      6.6   939.1    0.00       0    99999.0
 247   21:40   85.9    17    2.4   172      5.2   939.1    0.00       0    99999.0
 247   21:50   85.8    17    2.6   182      4.5   939.2    0.00       0    99999.0
 247   22:00   85.5    18    2.4   178      5.0   939.2    0.00       0    99999.0
 247   22:10   85.0    18    2.5   174      4.1   939.1    0.00       0    99999.0
 247   22:20   84.8    17    3.5   173      8.6   939.1    0.00       0    99999.0
 247   22:30   85.0    16    3.5   186      7.7   939.3    0.00       0    99999.0
 247   22:40   84.8    16    3.8   183      8.8   939.4    0.00       0    99999.0
 247   22:50   84.5    16    4.0   179      8.1   939.5    0.00       0    99999.0
 247   23:00   84.1    17    4.0   174      8.2   939.6    0.00       0    99999.0
 247   23:10   83.9    19    3.9   177      7.3   939.7    0.00       0    99999.0
 247   23:20   84.0    21    4.4   181     10.2   939.8    0.00       0    99999.0
 247   23:30   83.9    21    3.4   185      6.1   939.9    0.00       0    99999.0
 247   23:40   84.2    21    3.5   187      6.6   940.0    0.00       0    99999.0
 247   23:50   83.8    22    3.0   180      5.6   940.1    0.00       0    99999.0
 248    0:00   83.2    23    3.6   174      6.8   940.1    0.00       0    99999.0
 248    0:10   82.7    23    4.7   171      7.3   940.3    0.00       0    99999.0
 248    0:20   82.5    23    3.9   178      7.5   940.4    0.00       0    99999.0
 248    0:30   81.9    23    3.2   175      6.9   940.5    0.00       0    99999.0
 248    0:40   81.5    24    3.5   182      7.0   940.4    0.00       0    99999.0
 248    0:50   81.2    24    4.4   181      8.0   940.5    0.00       0    99999.0
 248    1:00   81.2    24    4.2   178      7.3   940.4    0.00       0    99999.0
 248    1:10   80.9    25    3.4   177      5.7   940.4    0.00       0    99999.0
 248    1:20   80.4    25    3.8   174      6.9   940.4    0.00       0    99999.0
 248    1:30   79.8    26    2.8   183      6.1   940.4    0.00       0    99999.0
 248    1:40   79.7    26    3.7   182      8.0   940.5    0.00       0    99999.0
 248    1:50   79.9    26    4.6   190     10.0   940.6    0.00       0    99999.0
 248    2:00   79.8    26    4.5   180      9.6   940.7    0.00       0    99999.0
 248    2:10   79.6    26    3.9   178      7.3   940.6    0.00       0    99999.0
 248    2:20   79.3    27    4.2   171      9.1   940.7    0.00       0    99999.0
 248    2:30   79.3    27    5.1   175     10.9   940.7    0.00       0    99999.0
 248    2:40   79.1    27    4.9   177      9.2   940.8    0.00       0    99999.0
 248    2:50   78.9    27    4.8   173     10.8   940.8    0.00       0    99999.0
 248    3:00   78.8    27    5.1   177     10.5   940.8    0.00       0    99999.0
 248    3:10   78.8    27    5.4   173     11.0   940.8    0.00       0    99999.0
 248    3:20   78.9    27    5.7   183     11.5   940.7    0.00       0    99999.0
 248    3:30   78.9    27    4.9   178     10.4   940.7    0.00       0    99999.0
 248    3:40   78.5    27    3.2   177      7.7   940.8    0.00       0    99999.0
 248    3:50   77.8    28    2.8   182      6.9   940.8    0.00       0    99999.0
 248    4:00   77.5    28    3.6   180     12.5   940.8    0.00       0    99999.0
 248    4:10   77.2    28    3.0   182      7.4   940.9    0.00       0    99999.0
 248    4:20   77.1    28    3.5   178      8.5   940.9    0.00       0    99999.0
 248    4:30   76.9    28    3.5   170      7.5   940.9    0.00       0    99999.0
 248    4:40   76.8    28    3.5   175      8.4   940.9    0.00       0    99999.0
 248    4:50   76.6    29    3.6   180      7.2   941.0    0.00       0    99999.0
 248    5:00   76.5    28    5.3   172      8.8   941.0    0.00       0    99999.0
 248    5:10   76.2    29    3.9   176      6.4   941.1    0.00       1    99999.0
 248    5:20   76.0    29    3.2   170      5.5   941.2    0.00       3    99999.0
 248    5:30   76.0    29    3.7   175      6.9   941.3    0.00       5    99999.0
 248    5:40   76.2    29    4.6   176     10.4   941.5    0.00       9    99999.0
 248    5:50   76.3    29    4.5   180      9.8   941.6    0.00      12    99999.0
 248    6:00   76.5    29    4.6   176      8.6   941.8    0.00      15    99999.0
 248    6:10   77.0    28    5.1   176      9.9   941.9    0.00      16    99999.0
 248    6:20   77.6    28    4.8   179     10.9   942.1    0.00      18    99999.0
 248    6:30   78.0    27    6.1   177     11.9   942.1    0.00      19    99999.0
 248    6:40   78.2    27    5.3   179     11.2   942.3    0.00      20    99999.0
 248    6:50   78.4    26    5.8   182     10.7   942.3    0.00      21    99999.0
 248    7:00   78.7    26    5.2   186     11.5   942.4    0.00      22    99999.0
 248    7:10   79.1    26    6.2   179     12.0   942.5    0.00      23    99999.0
 248    7:20   79.3    26    6.6   176     15.2   942.5    0.00      24    99999.0
 248    7:30   79.5    26    7.6   175     13.9   942.6    0.00      25    99999.0
 248    7:40   80.0    26    6.0   173     12.9   942.6    0.00      26    99999.0
 248    7:50   80.4    25    5.7   174     11.8   942.6    0.00      28    99999.0
 248    8:00   81.2    24    5.1   179     11.2   942.6    0.00      34    99999.0
 248    8:10   81.3    24    4.6   178     10.6   942.7    0.00      57    99999.0
 248    8:20   81.9    23    6.4   177     12.1   942.7    0.00      83    99999.0
 248    8:30   82.7    22    6.1   175     11.1   942.7    0.00     244    99999.0
 248    8:40   83.6    22    5.8   177     11.0   942.7    0.00     142    99999.0
 248    8:50   84.0    21    5.3   179     10.4   942.7    0.00     105    99999.0
 248    9:00   84.7    21    2.6   176      7.7   942.8    0.00     114    99999.0
 248    9:10   85.6    20    3.5   179     10.4   942.7    0.00     202    99999.0
 248    9:20   86.5    19    4.0   176      8.8   942.7    0.00     579    99999.0
 248    9:30   86.8    18    5.0   173     10.1   942.7    0.00     710    99999.0
 248    9:40   87.4    17    4.8   172      9.6   942.6    0.00     734    99999.0
 248    9:50   87.8    17    5.2   171     10.5   942.6    0.00     754    99999.0
 248   10:00   88.5    16    5.5   173     11.3   942.6    0.00     773    99999.0
 248   10:10   89.0    16    4.7   168      9.9   942.6    0.00     789    99999.0
 248   10:20   89.8    16    4.0   175     11.2   942.5    0.00     805    99999.0
 248   10:30   90.2    14    6.2   177     12.9   942.4    0.00     818    99999.0
 248   10:40   90.9    14    5.7   172     13.3   942.3    0.00     831    99999.0
 248   10:50   91.7    13    6.8   173     11.9   942.2    0.00     843    99999.0
 248   11:00   92.3    13    6.0   171     10.6   942.0    0.00     852    99999.0
 248   11:10   93.0    12    7.5   174     14.2   941.8    0.00     860    99999.0
 248   11:20   93.6    12    6.8   174     15.6   941.7    0.00     866    99999.0

Return to Las Vegas, Nevada graphs page.


Western Regional Climate Center,wrcc@dri.edu